createdAt,value
2018-01-30T00:01:55.569Z,7.30
2018-01-30T00:04:23.029Z,7.40
2018-01-30T00:06:51.507Z,7.30
2018-01-30T00:09:19.851Z,7.30
2018-01-30T00:11:47.329Z,7.40
2018-01-30T00:14:14.804Z,7.40
2018-01-30T00:16:43.034Z,7.20
2018-01-30T00:19:12.951Z,7.20
2018-01-30T00:21:41.321Z,7.20
2018-01-30T00:24:08.791Z,7.10
2018-01-30T00:26:36.298Z,7.00
2018-01-30T00:29:05.773Z,6.80
2018-01-30T00:31:34.971Z,6.80
2018-01-30T00:34:02.490Z,6.90
2018-01-30T00:36:29.965Z,6.90
2018-01-30T00:38:57.457Z,7.00
2018-01-30T00:41:24.900Z,7.00
2018-01-30T00:43:53.148Z,6.90
2018-01-30T00:46:20.811Z,6.90
2018-01-30T00:48:48.281Z,7.00
2018-01-30T00:51:16.610Z,6.90
2018-01-30T00:53:45.099Z,6.90
2018-01-30T00:56:13.071Z,6.90
2018-01-30T00:58:41.460Z,6.90
2018-01-30T01:01:09.830Z,6.90
2018-01-30T01:03:37.339Z,6.90
2018-01-30T01:06:05.717Z,6.80
2018-01-30T01:08:33.956Z,6.80
2018-01-30T01:11:01.532Z,6.80
2018-01-30T01:13:29.171Z,6.80
2018-01-30T01:15:56.745Z,6.80
2018-01-30T01:18:24.316Z,6.70
2018-01-30T01:20:51.786Z,6.70
2018-01-30T01:23:19.256Z,6.70
2018-01-30T01:25:47.519Z,6.60
2018-01-30T01:28:14.989Z,6.60
2018-01-30T01:30:43.240Z,6.60
2018-01-30T01:33:11.684Z,6.60
2018-01-30T01:35:40.053Z,6.60
2018-01-30T01:38:07.549Z,6.60
2018-01-30T01:40:35.031Z,6.60
2018-01-30T01:43:02.533Z,6.60
2018-01-30T01:45:29.997Z,6.60
2018-01-30T01:47:57.482Z,6.60
2018-01-30T01:50:24.958Z,6.70
2018-01-30T01:52:53.211Z,6.60
2018-01-30T01:55:20.684Z,6.60
2018-01-30T01:57:48.453Z,6.60
2018-01-30T02:00:17.668Z,6.50
2018-01-30T02:02:45.126Z,6.40
2018-01-30T02:05:12.612Z,6.40
2018-01-30T02:07:41.088Z,6.30
2018-01-30T02:10:08.572Z,6.20
2018-01-30T02:12:36.058Z,6.00
2018-01-30T02:15:03.686Z,6.00
2018-01-30T02:17:31.390Z,5.90
2018-01-30T02:19:59.632Z,5.80
2018-01-30T02:22:27.092Z,5.80
2018-01-30T02:24:54.574Z,5.70
2018-01-30T02:27:22.811Z,5.60
2018-01-30T02:29:50.306Z,5.60
2018-01-30T02:32:17.936Z,5.60
2018-01-30T02:34:45.507Z,5.60
2018-01-30T02:37:14.784Z,5.60
2018-01-30T02:39:42.270Z,5.70
2018-01-30T02:42:09.748Z,5.70
2018-01-30T02:44:37.996Z,5.70
2018-01-30T02:47:05.466Z,5.70
2018-01-30T02:49:32.945Z,5.60
2018-01-30T02:52:01.189Z,5.50
2018-01-30T02:54:28.671Z,5.50
2018-01-30T02:56:56.921Z,5.30
2018-01-30T02:59:24.418Z,5.30
2018-01-30T03:01:51.951Z,5.40
2018-01-30T03:04:19.408Z,5.50
2018-01-30T03:06:46.864Z,5.50
2018-01-30T03:09:15.623Z,5.70
2018-01-30T03:11:43.110Z,5.60
2018-01-30T03:14:11.565Z,5.70
2018-01-30T03:16:39.039Z,5.60
2018-01-30T03:19:06.505Z,5.50
2018-01-30T03:21:34.741Z,5.60
2018-01-30T03:24:02.221Z,5.60
2018-01-30T03:26:30.505Z,5.60
2018-01-30T03:28:58.004Z,5.60
2018-01-30T03:31:25.452Z,5.60
2018-01-30T03:33:52.937Z,5.60
2018-01-30T03:36:20.392Z,5.50
2018-01-30T03:38:48.824Z,5.50
2018-01-30T03:41:17.143Z,5.50
2018-01-30T03:43:44.766Z,5.50
2018-01-30T03:46:13.010Z,5.60
2018-01-30T03:48:40.581Z,5.50
2018-01-30T03:51:09.088Z,5.50
2018-01-30T03:53:36.631Z,5.40
2018-01-30T03:56:04.902Z,5.50
2018-01-30T03:58:32.352Z,5.50
2018-01-30T04:01:01.456Z,5.50
2018-01-30T04:03:28.916Z,5.50
2018-01-30T04:05:57.168Z,5.60
2018-01-30T04:08:24.625Z,5.60
2018-01-30T04:10:52.286Z,5.50
2018-01-30T04:13:19.824Z,5.40
2018-01-30T04:15:47.351Z,5.50
2018-01-30T04:18:15.663Z,5.40
2018-01-30T04:20:43.144Z,5.30
2018-01-30T04:23:10.610Z,5.30
2018-01-30T04:25:38.087Z,5.30
2018-01-30T04:28:05.575Z,5.40
2018-01-30T04:30:33.048Z,5.40
2018-01-30T04:33:00.597Z,5.30
2018-01-30T04:35:28.044Z,5.10
2018-01-30T04:37:55.505Z,5.10
2018-01-30T04:40:22.989Z,5.10
2018-01-30T04:42:50.469Z,5.10
2018-01-30T04:45:17.933Z,5.10
2018-01-30T04:47:46.172Z,5.20
2018-01-30T04:50:14.477Z,5.20
2018-01-30T04:52:42.713Z,5.00
2018-01-30T04:55:10.196Z,5.00
2018-01-30T04:57:37.649Z,5.00
2018-01-30T05:00:05.123Z,5.00
2018-01-30T05:02:32.592Z,5.00
2018-01-30T05:05:00.854Z,5.00
2018-01-30T05:07:28.318Z,4.90
2018-01-30T05:09:56.560Z,4.90
2018-01-30T05:12:24.017Z,4.90
2018-01-30T05:14:51.528Z,4.80
2018-01-30T05:17:19.978Z,4.90
2018-01-30T05:19:48.480Z,4.80
2018-01-30T05:22:17.220Z,4.70
2018-01-30T05:24:44.681Z,4.70
2018-01-30T05:27:12.161Z,4.80
2018-01-30T05:29:39.620Z,4.80
2018-01-30T05:32:07.113Z,4.90
2018-01-30T05:34:34.575Z,4.90
2018-01-30T05:37:02.065Z,4.90
2018-01-30T05:39:29.533Z,4.90
2018-01-30T05:41:57.015Z,4.90
2018-01-30T05:44:25.269Z,4.70
2018-01-30T05:46:52.761Z,4.70
2018-01-30T05:49:21.000Z,4.70
2018-01-30T05:51:48.487Z,4.70
2018-01-30T05:54:16.714Z,4.70
2018-01-30T05:56:44.197Z,4.70
2018-01-30T05:59:11.656Z,4.90
2018-01-30T06:01:39.897Z,4.90
2018-01-30T06:04:07.371Z,4.80
2018-01-30T06:06:34.837Z,4.80
2018-01-30T06:09:02.377Z,4.80
2018-01-30T06:11:30.979Z,4.80
2018-01-30T06:13:59.465Z,4.70
2018-01-30T06:16:26.958Z,4.70
2018-01-30T06:18:55.195Z,4.60
2018-01-30T06:21:23.599Z,4.50
2018-01-30T06:23:51.849Z,4.50
2018-01-30T06:26:19.317Z,4.50
2018-01-30T06:28:46.785Z,4.50
2018-01-30T06:31:15.192Z,4.60
2018-01-30T06:33:42.680Z,4.60
2018-01-30T06:36:10.157Z,4.70
2018-01-30T06:38:37.626Z,4.70
2018-01-30T06:41:06.933Z,4.70
2018-01-30T06:43:35.168Z,4.80
2018-01-30T06:46:02.641Z,4.80
2018-01-30T06:48:30.274Z,4.90
2018-01-30T06:50:57.742Z,4.90
2018-01-30T06:53:25.333Z,4.90
2018-01-30T06:55:52.793Z,4.90
2018-01-30T06:58:21.042Z,4.90
2018-01-30T07:00:48.629Z,4.90
2018-01-30T07:03:16.877Z,4.90
2018-01-30T07:05:44.365Z,4.90
2018-01-30T07:08:12.604Z,4.80
2018-01-30T07:10:40.095Z,4.80
2018-01-30T07:13:07.675Z,4.80
2018-01-30T07:15:35.159Z,4.70
2018-01-30T07:18:02.663Z,4.80
2018-01-30T07:20:30.897Z,4.90
2018-01-30T07:22:59.296Z,4.90
2018-01-30T07:25:26.786Z,5.00
2018-01-30T07:27:55.017Z,4.90
2018-01-30T07:30:22.586Z,4.90
2018-01-30T07:32:50.365Z,5.00
2018-01-30T07:35:17.833Z,5.10
2018-01-30T07:37:46.133Z,5.10
2018-01-30T07:40:13.606Z,5.10
2018-01-30T07:42:41.076Z,5.10
2018-01-30T07:45:08.573Z,5.20
2018-01-30T07:47:36.047Z,5.20
2018-01-30T07:50:04.309Z,5.30
2018-01-30T07:52:31.881Z,5.20
2018-01-30T07:55:00.556Z,5.20
2018-01-30T07:57:29.715Z,5.20
2018-01-30T07:59:58.156Z,5.20
2018-01-30T08:02:26.509Z,5.20
2018-01-30T08:04:53.997Z,5.20
2018-01-30T08:07:21.714Z,5.00
2018-01-30T08:09:49.226Z,4.90
2018-01-30T08:12:16.769Z,4.90
2018-01-30T08:14:45.222Z,4.60
2018-01-30T08:17:12.696Z,4.60
2018-01-30T08:19:40.933Z,4.70
2018-01-30T08:22:08.404Z,4.70
2018-01-30T08:24:35.870Z,4.80
2018-01-30T08:27:04.138Z,5.30
2018-01-30T08:29:31.598Z,5.30
2018-01-30T08:31:59.060Z,5.70
2018-01-30T08:34:26.608Z,5.90
2018-01-30T08:36:55.070Z,6.10
2018-01-30T08:39:22.552Z,6.20
2018-01-30T08:41:51.525Z,6.40
2018-01-30T08:44:19.096Z,6.40
2018-01-30T08:46:46.553Z,6.40
2018-01-30T08:49:14.041Z,6.40
2018-01-30T08:51:42.401Z,6.80
2018-01-30T08:54:09.879Z,6.80
2018-01-30T08:56:37.348Z,6.60
2018-01-30T08:59:04.840Z,6.50
2018-01-30T09:01:34.257Z,6.30
2018-01-30T09:04:02.604Z,6.10
2018-01-30T09:06:30.155Z,6.00
2018-01-30T09:08:58.511Z,5.90
2018-01-30T09:11:26.003Z,5.90
2018-01-30T09:13:53.476Z,5.80
2018-01-30T09:16:20.966Z,5.70
2018-01-30T09:18:51.173Z,5.70
2018-01-30T09:21:18.647Z,5.70
2018-01-30T09:23:46.885Z,5.70
2018-01-30T09:26:14.368Z,5.70
2018-01-30T09:28:41.837Z,5.80
2018-01-30T09:31:10.076Z,5.80
2018-01-30T09:33:37.636Z,5.80
2018-01-30T09:36:05.131Z,5.80
2018-01-30T09:38:32.806Z,5.90
2018-01-30T09:41:01.050Z,6.00
2018-01-30T09:43:29.344Z,5.90
2018-01-30T09:45:57.597Z,5.90
2018-01-30T09:48:25.079Z,5.90
2018-01-30T09:50:53.324Z,5.90
2018-01-30T09:53:20.899Z,5.90
2018-01-30T09:55:48.623Z,6.00
2018-01-30T09:58:17.292Z,6.30
2018-01-30T10:00:45.825Z,6.40
2018-01-30T10:03:13.439Z,6.70
2018-01-30T10:05:41.153Z,6.70
2018-01-30T10:08:09.540Z,6.60
2018-01-30T10:10:37.823Z,6.50
2018-01-30T10:13:06.234Z,6.50
2018-01-30T10:15:33.745Z,6.50
2018-01-30T10:18:02.190Z,6.60
2018-01-30T10:20:29.761Z,6.60
2018-01-30T10:22:57.489Z,6.60
2018-01-30T10:25:25.018Z,6.60
2018-01-30T10:27:54.248Z,7.50
2018-01-30T10:30:22.621Z,7.50
2018-01-30T10:32:50.257Z,8.10
2018-01-30T10:35:18.545Z,8.90
2018-01-30T10:37:47.737Z,9.10
2018-01-30T10:40:16.249Z,9.10
2018-01-30T10:42:44.306Z,9.00
2018-01-30T10:45:13.860Z,8.70
2018-01-30T10:47:42.878Z,8.60
2018-01-30T10:50:11.714Z,8.10
2018-01-30T10:52:39.177Z,8.10
2018-01-30T10:55:07.630Z,8.00
2018-01-30T10:57:35.111Z,8.30
2018-01-30T11:00:02.587Z,8.20
2018-01-30T11:02:30.094Z,8.10
2018-01-30T11:04:59.317Z,8.10
2018-01-30T11:07:26.796Z,8.10
2018-01-30T11:09:54.274Z,8.10
2018-01-30T11:12:21.769Z,8.00
2018-01-30T11:14:49.244Z,7.90
2018-01-30T11:17:17.615Z,8.00
2018-01-30T11:19:45.089Z,7.90
2018-01-30T11:22:12.582Z,8.10
2018-01-30T11:24:41.725Z,8.40
2018-01-30T11:27:09.197Z,8.40
2018-01-30T11:29:36.686Z,8.20
2018-01-30T11:32:04.249Z,8.20
2018-01-30T11:34:31.873Z,8.30
2018-01-30T11:37:00.344Z,8.60
2018-01-30T11:39:27.819Z,9.00
2018-01-30T11:41:55.289Z,9.00
2018-01-30T11:44:22.775Z,9.10
2018-01-30T11:46:51.008Z,8.90
2018-01-30T11:49:18.512Z,8.90
2018-01-30T11:51:46.740Z,8.80
2018-01-30T11:54:14.277Z,8.80
2018-01-30T11:56:41.753Z,8.90
2018-01-30T11:59:09.341Z,9.10
2018-01-30T12:01:36.827Z,9.00
2018-01-30T12:04:05.916Z,9.00
2018-01-30T12:06:34.160Z,9.20
2018-01-30T12:09:01.630Z,9.20
2018-01-30T12:11:29.872Z,9.40
2018-01-30T12:13:57.356Z,9.40
2018-01-30T12:16:24.857Z,9.30
2018-01-30T12:18:53.230Z,9.30
2018-01-30T12:21:20.818Z,9.50
2018-01-30T12:23:48.289Z,9.70
2018-01-30T12:26:15.778Z,10.00
2018-01-30T12:28:44.008Z,10.10
2018-01-30T12:31:11.496Z,10.10
2018-01-30T12:33:39.060Z,9.90
2018-01-30T12:36:08.487Z,9.70
2018-01-30T12:38:36.121Z,9.60
2018-01-30T12:41:03.598Z,9.60
2018-01-30T12:43:31.852Z,9.50
2018-01-30T12:45:59.312Z,9.40
2018-01-30T12:48:26.800Z,9.50
2018-01-30T12:50:54.271Z,9.60
2018-01-30T12:53:21.744Z,9.80
2018-01-30T12:55:49.876Z,9.70
2018-01-30T12:58:18.155Z,9.70
2018-01-30T13:00:46.409Z,10.20
2018-01-30T13:03:13.932Z,10.20
2018-01-30T13:05:42.389Z,10.40
2018-01-30T13:08:09.873Z,10.40
2018-01-30T13:10:37.361Z,10.50
2018-01-30T13:13:05.650Z,10.30
2018-01-30T13:15:33.458Z,10.30
2018-01-30T13:18:02.477Z,10.10
2018-01-30T13:20:29.964Z,10.00
2018-01-30T13:22:57.584Z,9.80
2018-01-30T13:25:25.065Z,9.60
2018-01-30T13:27:52.554Z,9.60
2018-01-30T13:30:20.806Z,9.30
2018-01-30T13:32:48.296Z,9.30
2018-01-30T13:35:15.798Z,9.20
2018-01-30T13:37:43.290Z,9.20
2018-01-30T13:40:11.531Z,9.00
2018-01-30T13:42:39.024Z,8.90
2018-01-30T13:45:08.211Z,8.70
2018-01-30T13:47:35.680Z,8.70
2018-01-30T13:50:04.840Z,8.70
2018-01-30T13:52:32.324Z,8.60
2018-01-30T13:55:00.577Z,8.70
2018-01-30T13:57:29.060Z,8.70
2018-01-30T13:59:56.531Z,8.80
2018-01-30T14:02:24.135Z,8.70
2018-01-30T14:04:51.636Z,8.70
2018-01-30T14:07:19.106Z,8.80
2018-01-30T14:09:48.458Z,8.80
2018-01-30T14:12:15.929Z,8.90
2018-01-30T14:14:43.417Z,9.00
2018-01-30T14:17:12.397Z,8.90
2018-01-30T14:19:39.948Z,8.90
2018-01-30T14:22:07.596Z,9.00
2018-01-30T14:24:35.124Z,9.20
2018-01-30T14:27:02.749Z,9.00
2018-01-30T14:29:30.332Z,8.70
2018-01-30T14:31:58.565Z,8.50
2018-01-30T14:34:26.185Z,8.50
2018-01-30T14:36:54.661Z,8.50
2018-01-30T14:39:22.222Z,8.40
2018-01-30T14:41:50.573Z,8.30
2018-01-30T14:44:18.813Z,8.40
2018-01-30T14:46:46.832Z,8.40
2018-01-30T14:49:14.371Z,8.30
2018-01-30T14:51:41.902Z,8.20
2018-01-30T14:54:09.369Z,8.10
2018-01-30T14:56:37.267Z,8.10
2018-01-30T14:59:05.805Z,8.10
2018-01-30T15:01:34.228Z,8.10
2018-01-30T15:04:02.473Z,8.10
2018-01-30T15:06:30.749Z,8.20
2018-01-30T15:08:59.828Z,8.20
2018-01-30T15:11:27.357Z,8.20
2018-01-30T15:13:56.426Z,8.30
2018-01-30T15:16:24.696Z,8.30
2018-01-30T15:18:52.940Z,8.30
2018-01-30T15:21:20.546Z,8.30
2018-01-30T15:23:48.618Z,8.40
2018-01-30T15:26:16.900Z,8.40
2018-01-30T15:28:44.433Z,8.30
2018-01-30T15:31:11.900Z,8.30
2018-01-30T15:33:40.152Z,8.30
2018-01-30T15:36:07.630Z,8.30
2018-01-30T15:38:36.035Z,8.20
2018-01-30T15:41:03.749Z,8.20
2018-01-30T15:43:31.233Z,8.20
2018-01-30T15:45:59.500Z,8.20
2018-01-30T15:48:27.814Z,8.20
2018-01-30T15:50:55.280Z,8.10
2018-01-30T15:53:22.744Z,8.10
2018-01-30T15:55:51.084Z,8.20
2018-01-30T15:58:18.577Z,8.30
2018-01-30T16:00:46.059Z,8.20
2018-01-30T16:03:13.526Z,8.20
2018-01-30T16:05:41.028Z,8.20
2018-01-30T16:08:08.585Z,8.20
2018-01-30T16:10:37.201Z,8.20
2018-01-30T16:13:04.794Z,8.10
2018-01-30T16:15:33.041Z,8.10
2018-01-30T16:18:00.533Z,8.00
2018-01-30T16:20:29.265Z,8.00
2018-01-30T16:22:56.736Z,7.90
2018-01-30T16:25:25.148Z,7.90
2018-01-30T16:27:52.643Z,7.80
2018-01-30T16:30:20.133Z,7.80
2018-01-30T16:32:47.802Z,7.70
2018-01-30T16:35:15.287Z,7.60
2018-01-30T16:37:43.648Z,7.50
2018-01-30T16:40:14.839Z,7.50
2018-01-30T16:42:42.744Z,7.50
2018-01-30T16:45:11.209Z,7.40
2018-01-30T16:47:38.677Z,7.40
2018-01-30T16:50:06.173Z,7.50
2018-01-30T16:52:34.443Z,7.40
2018-01-30T16:55:02.888Z,7.40
2018-01-30T16:57:30.364Z,7.30
2018-01-30T16:59:58.953Z,7.40
2018-01-30T17:02:27.372Z,7.40
2018-01-30T17:04:54.952Z,7.40
2018-01-30T17:07:23.210Z,7.40
2018-01-30T17:09:50.840Z,7.40
2018-01-30T17:12:18.350Z,7.40
2018-01-30T17:14:46.953Z,7.40
2018-01-30T17:17:15.533Z,7.40
2018-01-30T17:19:43.041Z,7.30
2018-01-30T17:22:11.631Z,7.20
2018-01-30T17:24:39.160Z,7.10
2018-01-30T17:27:07.428Z,6.90
2018-01-30T17:29:34.909Z,6.90
2018-01-30T17:32:03.176Z,6.80
2018-01-30T17:34:32.720Z,6.70
2018-01-30T17:37:00.232Z,6.70
2018-01-30T17:39:28.479Z,6.60
2018-01-30T17:41:55.968Z,6.60
2018-01-30T17:44:24.338Z,6.60
2018-01-30T17:46:51.834Z,6.50
2018-01-30T17:49:19.323Z,6.50
2018-01-30T17:51:47.673Z,6.50
2018-01-30T17:54:15.752Z,6.50
2018-01-30T17:56:45.017Z,6.40
2018-01-30T17:59:13.270Z,6.50
2018-01-30T18:01:40.762Z,6.50
2018-01-30T18:04:09.263Z,6.70
2018-01-30T18:06:36.764Z,6.80
2018-01-30T18:09:04.289Z,6.90
2018-01-30T18:11:31.746Z,6.90
2018-01-30T18:13:59.228Z,6.80
2018-01-30T18:16:26.701Z,6.80
2018-01-30T18:18:55.042Z,6.90
2018-01-30T18:21:22.511Z,6.80
2018-01-30T18:23:49.992Z,6.70
2018-01-30T18:26:17.464Z,6.70
2018-01-30T18:28:45.722Z,6.70
2018-01-30T18:31:13.275Z,6.70
2018-01-30T18:33:41.053Z,6.60
2018-01-30T18:36:09.292Z,6.80
2018-01-30T18:38:36.788Z,6.80
2018-01-30T18:41:04.284Z,6.90
2018-01-30T18:43:31.755Z,6.90
2018-01-30T18:45:59.255Z,6.90
2018-01-30T18:48:26.741Z,6.90
2018-01-30T18:50:55.189Z,6.90
2018-01-30T18:53:22.670Z,7.00
2018-01-30T18:55:51.056Z,6.90
2018-01-30T18:58:20.204Z,6.90
2018-01-30T19:00:49.700Z,6.90
2018-01-30T19:03:17.168Z,6.90
2018-01-30T19:05:44.654Z,6.90
2018-01-30T19:08:12.908Z,7.10
2018-01-30T19:10:40.585Z,7.00
2018-01-30T19:13:08.208Z,7.10
2018-01-30T19:15:36.670Z,7.10
2018-01-30T19:18:04.160Z,7.00
2018-01-30T19:20:31.626Z,6.80
2018-01-30T19:22:59.098Z,6.60
2018-01-30T19:25:29.291Z,6.50
2018-01-30T19:27:56.780Z,6.50
2018-01-30T19:30:25.083Z,6.50
2018-01-30T19:32:52.941Z,6.50
2018-01-30T19:35:20.432Z,6.60
2018-01-30T19:37:47.917Z,6.70
2018-01-30T19:40:15.404Z,6.60
2018-01-30T19:42:44.446Z,6.60
2018-01-30T19:45:11.932Z,6.60
2018-01-30T19:47:39.401Z,6.70
2018-01-30T19:50:07.646Z,6.70
2018-01-30T19:52:35.115Z,6.70
2018-01-30T19:55:02.600Z,6.60
2018-01-30T19:57:30.863Z,6.40
2018-01-30T19:59:58.339Z,6.30
2018-01-30T20:02:26.587Z,6.40
2018-01-30T20:04:55.046Z,6.30
2018-01-30T20:07:22.958Z,6.20
2018-01-30T20:09:51.361Z,5.80
2018-01-30T20:12:18.812Z,5.80
2018-01-30T20:14:46.309Z,5.80
2018-01-30T20:17:19.359Z,5.70
2018-01-30T20:19:46.831Z,5.70
2018-01-30T20:22:16.128Z,5.60
2018-01-30T20:24:43.663Z,5.70
2018-01-30T20:27:12.643Z,5.80
2018-01-30T20:29:40.234Z,5.80
2018-01-30T20:32:07.717Z,5.70
2018-01-30T20:34:36.094Z,5.80
2018-01-30T20:37:04.580Z,5.80
2018-01-30T20:39:32.087Z,5.80
2018-01-30T20:42:00.367Z,5.90
2018-01-30T20:44:27.870Z,5.80
2018-01-30T20:46:55.328Z,5.80
2018-01-30T20:49:22.807Z,5.80
2018-01-30T20:51:50.265Z,5.70
2018-01-30T20:54:19.340Z,5.80
2018-01-30T20:56:47.072Z,5.80
2018-01-30T20:59:14.711Z,6.00
2018-01-30T21:01:42.309Z,6.00
2018-01-30T21:04:09.942Z,6.00
2018-01-30T21:06:38.596Z,6.10
2018-01-30T21:09:07.224Z,6.00
2018-01-30T21:11:35.651Z,5.90
2018-01-30T21:14:04.090Z,5.80
2018-01-30T21:16:32.358Z,5.70
2018-01-30T21:19:00.321Z,5.80
2018-01-30T21:21:28.311Z,5.70
2018-01-30T21:23:56.702Z,5.60
2018-01-30T21:26:24.641Z,5.60
2018-01-30T21:28:52.613Z,5.60
2018-01-30T21:31:21.139Z,5.60
2018-01-30T21:33:48.698Z,5.50
2018-01-30T21:36:16.364Z,5.60
2018-01-30T21:38:44.672Z,5.70
2018-01-30T21:41:12.199Z,5.70
2018-01-30T21:43:40.533Z,5.80
2018-01-30T21:46:08.528Z,5.80
2018-01-30T21:48:36.082Z,5.80
2018-01-30T21:51:04.704Z,5.90
2018-01-30T21:53:32.965Z,6.00
2018-01-30T21:56:01.466Z,6.10
2018-01-30T21:58:29.717Z,6.10
2018-01-30T22:00:59.273Z,6.10
2018-01-30T22:03:26.814Z,6.10
2018-01-30T22:05:54.314Z,6.20
2018-01-30T22:08:21.928Z,6.20
2018-01-30T22:10:49.466Z,6.10
2018-01-30T22:13:17.747Z,6.10
2018-01-30T22:15:46.741Z,6.20
2018-01-30T22:18:15.046Z,6.10
2018-01-30T22:20:42.545Z,6.10
2018-01-30T22:23:10.048Z,6.20
2018-01-30T22:25:37.609Z,6.20
2018-01-30T22:28:05.197Z,6.30
2018-01-30T22:30:32.698Z,6.40
2018-01-30T22:33:00.185Z,6.50
2018-01-30T22:35:28.710Z,6.60
2018-01-30T22:37:56.303Z,6.70
2018-01-30T22:40:24.718Z,6.80
2018-01-30T22:42:52.970Z,6.80
2018-01-30T22:45:21.378Z,6.80
